sensor_id;sensor_type;location;lat;lon;timestamp;temperature;humidity
20081;DHT22;10200;49.232;9.222;2023-02-01T00:01:51;5.60;99.90
20081;DHT22;10200;49.232;9.222;2023-02-01T00:04:16;5.60;99.90
20081;DHT22;10200;49.232;9.222;2023-02-01T00:06:42;5.60;99.90
20081;DHT22;10200;49.232;9.222;2023-02-01T00:09:07;5.60;99.90
20081;DHT22;10200;49.232;9.222;2023-02-01T00:11:33;5.70;99.90
20081;DHT22;10200;49.232;9.222;2023-02-01T00:13:59;5.60;99.90
20081;DHT22;10200;49.232;9.222;2023-02-01T00:16:29;5.60;99.90
20081;DHT22;10200;49.232;9.222;2023-02-01T00:18:59;5.60;99.90
20081;DHT22;10200;49.232;9.222;2023-02-01T00:21:25;5.60;99.90
20081;DHT22;10200;49.232;9.222;2023-02-01T00:23:51;5.60;99.90
20081;DHT22;10200;49.232;9.222;2023-02-01T00:26:19;5.60;99.90
20081;DHT22;10200;49.232;9.222;2023-02-01T00:28:45;5.70;99.90
20081;DHT22;10200;49.232;9.222;2023-02-01T00:31:11;5.70;99.90
20081;DHT22;10200;49.232;9.222;2023-02-01T00:33:37;5.70;99.90
20081;DHT22;10200;49.232;9.222;2023-02-01T00:36:05;5.70;99.90
20081;DHT22;10200;49.232;9.222;2023-02-01T00:38:32;5.70;99.90
20081;DHT22;10200;49.232;9.222;2023-02-01T00:41:05;5.70;99.90
20081;DHT22;10200;49.232;9.222;2023-02-01T00:43:32;5.70;99.90
20081;DHT22;10200;49.232;9.222;2023-02-01T00:45:58;5.70;99.90
20081;DHT22;10200;49.232;9.222;2023-02-01T00:48:24;5.70;99.90
20081;DHT22;10200;49.232;9.222;2023-02-01T00:50:50;5.70;99.90
20081;DHT22;10200;49.232;9.222;2023-02-01T00:53:16;5.70;99.90
20081;DHT22;10200;49.232;9.222;2023-02-01T00:55:45;5.80;99.90
20081;DHT22;10200;49.232;9.222;2023-02-01T00:58:11;5.80;99.90
20081;DHT22;10200;49.232;9.222;2023-02-01T01:00:36;5.80;99.90
20081;DHT22;10200;49.232;9.222;2023-02-01T01:03:02;5.80;99.90
20081;DHT22;10200;49.232;9.222;2023-02-01T01:05:28;5.80;99.90
20081;DHT22;10200;49.232;9.222;2023-02-01T01:07:53;5.80;99.90
20081;DHT22;10200;49.232;9.222;2023-02-01T01:10:19;5.80;99.90
20081;DHT22;10200;49.232;9.222;2023-02-01T01:12:45;5.80;99.90
20081;DHT22;10200;49.232;9.222;2023-02-01T01:15:11;5.80;99.90
20081;DHT22;10200;49.232;9.222;2023-02-01T01:17:36;5.80;99.90
20081;DHT22;10200;49.232;9.222;2023-02-01T01:20:03;5.80;99.90
20081;DHT22;10200;49.232;9.222;2023-02-01T01:22:29;5.80;99.90
20081;DHT22;10200;49.232;9.222;2023-02-01T01:24:54;5.90;99.90
20081;DHT22;10200;49.232;9.222;2023-02-01T01:27:20;5.80;99.90
20081;DHT22;10200;49.232;9.222;2023-02-01T01:29:49;5.90;99.90
20081;DHT22;10200;49.232;9.222;2023-02-01T01:32:15;5.90;99.90
20081;DHT22;10200;49.232;9.222;2023-02-01T01:34:41;5.90;99.90
20081;DHT22;10200;49.232;9.222;2023-02-01T01:37:06;5.90;99.90
20081;DHT22;10200;49.232;9.222;2023-02-01T01:39:32;5.90;99.90
20081;DHT22;10200;49.232;9.222;2023-02-01T01:41:57;5.90;99.90
20081;DHT22;10200;49.232;9.222;2023-02-01T01:47:39;5.90;99.90
20081;DHT22;10200;49.232;9.222;2023-02-01T01:50:11;5.90;99.90
20081;DHT22;10200;49.232;9.222;2023-02-01T01:52:39;5.90;99.90
20081;DHT22;10200;49.232;9.222;2023-02-01T01:55:07;5.90;99.90
20081;DHT22;10200;49.232;9.222;2023-02-01T01:57:37;5.90;99.90
20081;DHT22;10200;49.232;9.222;2023-02-01T02:00:07;5.90;99.90
20081;DHT22;10200;49.232;9.222;2023-02-01T02:02:34;5.90;99.90
20081;DHT22;10200;49.232;9.222;2023-02-01T02:05:00;6.00;99.90
20081;DHT22;10200;49.232;9.222;2023-02-01T02:07:33;5.90;99.90
20081;DHT22;10200;49.232;9.222;2023-02-01T02:10:01;5.90;99.90
20081;DHT22;10200;49.232;9.222;2023-02-01T02:12:28;6.00;99.90
20081;DHT22;10200;49.232;9.222;2023-02-01T02:14:53;6.00;99.90
20081;DHT22;10200;49.232;9.222;2023-02-01T02:26:20;5.90;99.90
20081;DHT22;10200;49.232;9.222;2023-02-01T02:35:01;5.90;99.90
20081;DHT22;10200;49.232;9.222;2023-02-01T02:37:42;5.90;99.90
20081;DHT22;10200;49.232;9.222;2023-02-01T02:40:28;5.90;99.90
20081;DHT22;10200;49.232;9.222;2023-02-01T02:46:05;6.00;99.90
20081;DHT22;10200;49.232;9.222;2023-02-01T02:51:31;5.90;99.90
20081;DHT22;10200;49.232;9.222;2023-02-01T02:54:21;5.90;99.90
20081;DHT22;10200;49.232;9.222;2023-02-01T02:57:09;5.90;99.90
20081;DHT22;10200;49.232;9.222;2023-02-01T02:59:58;5.90;99.90
20081;DHT22;10200;49.232;9.222;2023-02-01T03:02:44;5.90;99.90
20081;DHT22;10200;49.232;9.222;2023-02-01T03:05:36;6.00;99.90
20081;DHT22;10200;49.232;9.222;2023-02-01T03:13:24;6.00;99.90
20081;DHT22;10200;49.232;9.222;2023-02-01T03:21:06;6.00;99.90
20081;DHT22;10200;49.232;9.222;2023-02-01T03:23:36;5.90;99.90
20081;DHT22;10200;49.232;9.222;2023-02-01T03:26:04;5.90;99.90
20081;DHT22;10200;49.232;9.222;2023-02-01T03:28:32;5.90;99.90
20081;DHT22;10200;49.232;9.222;2023-02-01T03:31:00;5.90;99.90
20081;DHT22;10200;49.232;9.222;2023-02-01T03:33:26;5.90;99.90
20081;DHT22;10200;49.232;9.222;2023-02-01T03:46:49;6.00;99.90
20081;DHT22;10200;49.232;9.222;2023-02-01T03:49:28;6.00;99.90
20081;DHT22;10200;49.232;9.222;2023-02-01T03:51:55;6.00;99.90
20081;DHT22;10200;49.232;9.222;2023-02-01T03:54:22;6.00;99.90
20081;DHT22;10200;49.232;9.222;2023-02-01T03:56:50;6.00;99.90
20081;DHT22;10200;49.232;9.222;2023-02-01T03:59:16;6.00;99.90
20081;DHT22;10200;49.232;9.222;2023-02-01T04:01:42;6.00;99.90
20081;DHT22;10200;49.232;9.222;2023-02-01T04:04:08;6.00;99.90
20081;DHT22;10200;49.232;9.222;2023-02-01T04:06:34;6.00;99.90
20081;DHT22;10200;49.232;9.222;2023-02-01T04:09:00;6.00;99.90
20081;DHT22;10200;49.232;9.222;2023-02-01T04:11:26;6.00;99.90
20081;DHT22;10200;49.232;9.222;2023-02-01T04:13:53;6.00;99.90
20081;DHT22;10200;49.232;9.222;2023-02-01T04:16:18;6.10;99.90
20081;DHT22;10200;49.232;9.222;2023-02-01T04:18:44;6.00;99.90
20081;DHT22;10200;49.232;9.222;2023-02-01T04:21:09;6.00;99.90
20081;DHT22;10200;49.232;9.222;2023-02-01T04:23:35;6.00;99.90
20081;DHT22;10200;49.232;9.222;2023-02-01T04:26:03;6.00;99.90
20081;DHT22;10200;49.232;9.222;2023-02-01T04:28:29;6.00;99.90
20081;DHT22;10200;49.232;9.222;2023-02-01T04:30:55;6.00;99.90
20081;DHT22;10200;49.232;9.222;2023-02-01T04:33:20;6.00;99.90
20081;DHT22;10200;49.232;9.222;2023-02-01T04:35:47;6.00;99.90
20081;DHT22;10200;49.232;9.222;2023-02-01T04:38:12;6.00;99.90
20081;DHT22;10200;49.232;9.222;2023-02-01T04:40:38;6.00;99.90
20081;DHT22;10200;49.232;9.222;2023-02-01T04:43:04;6.00;99.90
20081;DHT22;10200;49.232;9.222;2023-02-01T04:45:29;6.00;99.90
20081;DHT22;10200;49.232;9.222;2023-02-01T04:47:55;6.00;99.90
20081;DHT22;10200;49.232;9.222;2023-02-01T04:50:21;6.00;99.90
20081;DHT22;10200;49.232;9.222;2023-02-01T04:52:46;6.00;99.90
20081;DHT22;10200;49.232;9.222;2023-02-01T04:55:12;6.00;99.90
20081;DHT22;10200;49.232;9.222;2023-02-01T04:57:39;6.00;99.90
20081;DHT22;10200;49.232;9.222;2023-02-01T05:00:06;6.00;99.90
20081;DHT22;10200;49.232;9.222;2023-02-01T05:02:32;6.00;99.90
20081;DHT22;10200;49.232;9.222;2023-02-01T05:04:58;6.00;99.90
20081;DHT22;10200;49.232;9.222;2023-02-01T05:07:23;6.00;99.90
20081;DHT22;10200;49.232;9.222;2023-02-01T05:09:50;6.00;99.90
20081;DHT22;10200;49.232;9.222;2023-02-01T05:12:16;6.00;99.90
20081;DHT22;10200;49.232;9.222;2023-02-01T05:15:00;6.00;99.90
20081;DHT22;10200;49.232;9.222;2023-02-01T05:17:26;6.00;99.90
20081;DHT22;10200;49.232;9.222;2023-02-01T05:19:51;6.00;99.90
20081;DHT22;10200;49.232;9.222;2023-02-01T05:22:17;6.00;99.90
20081;DHT22;10200;49.232;9.222;2023-02-01T05:24:43;6.00;99.90
20081;DHT22;10200;49.232;9.222;2023-02-01T05:27:09;6.00;99.90
20081;DHT22;10200;49.232;9.222;2023-02-01T05:29:35;6.00;99.90
20081;DHT22;10200;49.232;9.222;2023-02-01T05:32:00;6.00;99.90
20081;DHT22;10200;49.232;9.222;2023-02-01T05:34:26;6.00;99.90
20081;DHT22;10200;49.232;9.222;2023-02-01T05:36:51;6.10;99.90
20081;DHT22;10200;49.232;9.222;2023-02-01T05:39:17;6.00;99.90
20081;DHT22;10200;49.232;9.222;2023-02-01T05:41:43;6.00;99.90
20081;DHT22;10200;49.232;9.222;2023-02-01T05:44:10;6.00;99.90
20081;DHT22;10200;49.232;9.222;2023-02-01T05:46:36;6.00;99.90
20081;DHT22;10200;49.232;9.222;2023-02-01T05:49:02;6.00;99.90
20081;DHT22;10200;49.232;9.222;2023-02-01T05:51:27;6.00;99.90
20081;DHT22;10200;49.232;9.222;2023-02-01T05:53:53;6.00;99.90
20081;DHT22;10200;49.232;9.222;2023-02-01T05:56:18;6.00;99.90
20081;DHT22;10200;49.232;9.222;2023-02-01T05:58:44;6.00;99.90
20081;DHT22;10200;49.232;9.222;2023-02-01T06:01:09;6.00;99.90
20081;DHT22;10200;49.232;9.222;2023-02-01T06:03:35;6.00;99.90
20081;DHT22;10200;49.232;9.222;2023-02-01T06:06:01;6.00;99.90
20081;DHT22;10200;49.232;9.222;2023-02-01T06:08:27;6.00;99.90
20081;DHT22;10200;49.232;9.222;2023-02-01T06:11:03;6.00;99.90
20081;DHT22;10200;49.232;9.222;2023-02-01T06:13:30;6.00;99.90
20081;DHT22;10200;49.232;9.222;2023-02-01T06:15:55;6.00;99.90
20081;DHT22;10200;49.232;9.222;2023-02-01T06:18:23;6.00;99.90
20081;DHT22;10200;49.232;9.222;2023-02-01T06:20:56;6.00;99.90
20081;DHT22;10200;49.232;9.222;2023-02-01T06:23:22;6.00;99.90
20081;DHT22;10200;49.232;9.222;2023-02-01T06:25:52;6.00;99.90
20081;DHT22;10200;49.232;9.222;2023-02-01T06:28:18;6.00;99.90
20081;DHT22;10200;49.232;9.222;2023-02-01T06:30:44;6.00;99.90
20081;DHT22;10200;49.232;9.222;2023-02-01T06:33:13;6.00;99.90
20081;DHT22;10200;49.232;9.222;2023-02-01T06:35:40;6.00;99.90
20081;DHT22;10200;49.232;9.222;2023-02-01T06:38:07;6.00;99.90
20081;DHT22;10200;49.232;9.222;2023-02-01T06:40:33;6.10;99.90
20081;DHT22;10200;49.232;9.222;2023-02-01T06:42:58;6.00;99.90
20081;DHT22;10200;49.232;9.222;2023-02-01T06:45:24;6.00;99.90
20081;DHT22;10200;49.232;9.222;2023-02-01T06:47:50;6.00;99.90
20081;DHT22;10200;49.232;9.222;2023-02-01T06:50:16;6.00;99.90
20081;DHT22;10200;49.232;9.222;2023-02-01T06:52:41;5.90;99.90
20081;DHT22;10200;49.232;9.222;2023-02-01T06:55:07;6.00;99.90
20081;DHT22;10200;49.232;9.222;2023-02-01T06:57:33;6.00;99.90
20081;DHT22;10200;49.232;9.222;2023-02-01T07:00:01;5.90;99.90
20081;DHT22;10200;49.232;9.222;2023-02-01T07:02:28;6.00;99.90
20081;DHT22;10200;49.232;9.222;2023-02-01T07:04:53;5.90;99.90
20081;DHT22;10200;49.232;9.222;2023-02-01T07:07:19;5.90;99.90
20081;DHT22;10200;49.232;9.222;2023-02-01T07:09:45;5.90;99.90
20081;DHT22;10200;49.232;9.222;2023-02-01T07:12:11;5.90;99.90
20081;DHT22;10200;49.232;9.222;2023-02-01T07:14:36;5.90;99.90
20081;DHT22;10200;49.232;9.222;2023-02-01T07:17:02;5.90;99.90
20081;DHT22;10200;49.232;9.222;2023-02-01T07:19:28;5.90;99.90
20081;DHT22;10200;49.232;9.222;2023-02-01T07:21:53;5.90;99.90
20081;DHT22;10200;49.232;9.222;2023-02-01T07:24:19;5.90;99.90
20081;DHT22;10200;49.232;9.222;2023-02-01T07:26:44;5.90;99.90
20081;DHT22;10200;49.232;9.222;2023-02-01T07:29:10;5.90;99.90
20081;DHT22;10200;49.232;9.222;2023-02-01T07:31:35;6.00;99.90
20081;DHT22;10200;49.232;9.222;2023-02-01T07:34:01;6.00;99.90
20081;DHT22;10200;49.232;9.222;2023-02-01T07:36:28;6.00;99.90
20081;DHT22;10200;49.232;9.222;2023-02-01T07:38:53;5.90;99.90
20081;DHT22;10200;49.232;9.222;2023-02-01T07:41:20;5.90;99.90
20081;DHT22;10200;49.232;9.222;2023-02-01T07:43:45;6.00;99.90
20081;DHT22;10200;49.232;9.222;2023-02-01T07:46:11;6.00;99.90
20081;DHT22;10200;49.232;9.222;2023-02-01T07:48:37;6.00;99.90
20081;DHT22;10200;49.232;9.222;2023-02-01T07:51:05;6.00;99.90
20081;DHT22;10200;49.232;9.222;2023-02-01T07:53:33;6.00;99.90
20081;DHT22;10200;49.232;9.222;2023-02-01T07:55:59;6.00;99.90
20081;DHT22;10200;49.232;9.222;2023-02-01T07:58:25;6.00;99.90
20081;DHT22;10200;49.232;9.222;2023-02-01T08:00:52;6.10;99.90
20081;DHT22;10200;49.232;9.222;2023-02-01T08:03:37;6.20;99.90
20081;DHT22;10200;49.232;9.222;2023-02-01T08:06:03;6.30;99.90
20081;DHT22;10200;49.232;9.222;2023-02-01T08:08:29;6.50;99.90
20081;DHT22;10200;49.232;9.222;2023-02-01T08:11:00;6.60;99.90
20081;DHT22;10200;49.232;9.222;2023-02-01T08:13:25;6.70;99.90
20081;DHT22;10200;49.232;9.222;2023-02-01T08:15:51;6.70;99.90
20081;DHT22;10200;49.232;9.222;2023-02-01T08:18:16;6.70;99.90
20081;DHT22;10200;49.232;9.222;2023-02-01T08:20:44;6.70;99.90
20081;DHT22;10200;49.232;9.222;2023-02-01T08:23:11;6.60;99.90
20081;DHT22;10200;49.232;9.222;2023-02-01T08:25:37;6.80;99.90
20081;DHT22;10200;49.232;9.222;2023-02-01T08:28:05;6.80;99.90
20081;DHT22;10200;49.232;9.222;2023-02-01T08:30:31;6.80;99.90
20081;DHT22;10200;49.232;9.222;2023-02-01T08:32:57;6.80;99.90
20081;DHT22;10200;49.232;9.222;2023-02-01T08:35:22;6.70;99.90
20081;DHT22;10200;49.232;9.222;2023-02-01T08:37:50;6.60;99.90
20081;DHT22;10200;49.232;9.222;2023-02-01T08:40:16;6.60;99.90
20081;DHT22;10200;49.232;9.222;2023-02-01T08:42:42;6.60;99.90
20081;DHT22;10200;49.232;9.222;2023-02-01T08:45:25;6.50;99.90
20081;DHT22;10200;49.232;9.222;2023-02-01T08:47:51;6.60;99.90
20081;DHT22;10200;49.232;9.222;2023-02-01T08:50:18;6.70;99.90
20081;DHT22;10200;49.232;9.222;2023-02-01T08:52:44;6.70;99.90
20081;DHT22;10200;49.232;9.222;2023-02-01T08:55:11;6.70;99.90
20081;DHT22;10200;49.232;9.222;2023-02-01T08:57:36;6.70;99.90
20081;DHT22;10200;49.232;9.222;2023-02-01T09:00:04;6.60;99.90
20081;DHT22;10200;49.232;9.222;2023-02-01T09:02:31;6.70;99.90
20081;DHT22;10200;49.232;9.222;2023-02-01T09:04:56;6.60;99.90
20081;DHT22;10200;49.232;9.222;2023-02-01T09:07:22;6.60;99.90
20081;DHT22;10200;49.232;9.222;2023-02-01T09:09:48;6.60;99.90
20081;DHT22;10200;49.232;9.222;2023-02-01T09:12:13;6.60;99.90
20081;DHT22;10200;49.232;9.222;2023-02-01T09:14:39;6.60;99.90
20081;DHT22;10200;49.232;9.222;2023-02-01T09:17:05;6.60;99.90
20081;DHT22;10200;49.232;9.222;2023-02-01T09:19:31;6.70;99.90
20081;DHT22;10200;49.232;9.222;2023-02-01T09:21:57;6.70;99.90
20081;DHT22;10200;49.232;9.222;2023-02-01T09:24:23;6.80;99.90
20081;DHT22;10200;49.232;9.222;2023-02-01T09:26:49;6.80;99.90
20081;DHT22;10200;49.232;9.222;2023-02-01T09:29:15;6.90;99.90
20081;DHT22;10200;49.232;9.222;2023-02-01T09:31:41;6.90;99.90
20081;DHT22;10200;49.232;9.222;2023-02-01T09:34:07;7.00;99.90
20081;DHT22;10200;49.232;9.222;2023-02-01T09:36:33;7.00;99.90
20081;DHT22;10200;49.232;9.222;2023-02-01T09:38:59;7.00;99.90
20081;DHT22;10200;49.232;9.222;2023-02-01T09:47:22;6.90;99.90
20081;DHT22;10200;49.232;9.222;2023-02-01T09:50:04;6.90;99.90
20081;DHT22;10200;49.232;9.222;2023-02-01T09:55:36;6.80;99.90
20081;DHT22;10200;49.232;9.222;2023-02-01T09:58:24;6.80;99.90
20081;DHT22;10200;49.232;9.222;2023-02-01T10:00:57;6.70;99.90
20081;DHT22;10200;49.232;9.222;2023-02-01T10:03:26;6.70;99.90
20081;DHT22;10200;49.232;9.222;2023-02-01T10:15:01;6.80;99.90
20081;DHT22;10200;49.232;9.222;2023-02-01T10:26:45;7.00;99.90
20081;DHT22;10200;49.232;9.222;2023-02-01T10:29:22;6.90;99.90
20081;DHT22;10200;49.232;9.222;2023-02-01T10:31:50;6.90;99.90
20081;DHT22;10200;49.232;9.222;2023-02-01T10:34:25;6.90;99.90
20081;DHT22;10200;49.232;9.222;2023-02-01T10:36:59;6.90;99.90
20081;DHT22;10200;49.232;9.222;2023-02-01T10:39:25;7.00;99.90
20081;DHT22;10200;49.232;9.222;2023-02-01T10:41:51;7.10;99.90
20081;DHT22;10200;49.232;9.222;2023-02-01T10:44:21;7.20;99.90
20081;DHT22;10200;49.232;9.222;2023-02-01T10:46:49;7.20;99.90
20081;DHT22;10200;49.232;9.222;2023-02-01T10:49:19;7.30;99.90
20081;DHT22;10200;49.232;9.222;2023-02-01T10:51:48;7.30;99.90
20081;DHT22;10200;49.232;9.222;2023-02-01T10:54:21;7.40;99.90
20081;DHT22;10200;49.232;9.222;2023-02-01T10:56:49;7.40;99.90
20081;DHT22;10200;49.232;9.222;2023-02-01T10:59:23;7.30;99.90
20081;DHT22;10200;49.232;9.222;2023-02-01T11:01:50;7.40;99.90
20081;DHT22;10200;49.232;9.222;2023-02-01T11:04:18;7.30;99.90
20081;DHT22;10200;49.232;9.222;2023-02-01T11:07:07;7.30;99.90
20081;DHT22;10200;49.232;9.222;2023-02-01T11:09:38;7.30;99.90
20081;DHT22;10200;49.232;9.222;2023-02-01T11:12:04;7.30;99.90
20081;DHT22;10200;49.232;9.222;2023-02-01T11:14:40;7.40;99.90
20081;DHT22;10200;49.232;9.222;2023-02-01T11:20:00;7.50;99.90
20081;DHT22;10200;49.232;9.222;2023-02-01T11:22:27;7.40;99.90
20081;DHT22;10200;49.232;9.222;2023-02-01T11:24:55;7.40;99.90
20081;DHT22;10200;49.232;9.222;2023-02-01T11:27:23;7.40;99.90
20081;DHT22;10200;49.232;9.222;2023-02-01T11:29:52;7.30;99.90
20081;DHT22;10200;49.232;9.222;2023-02-01T11:32:20;7.30;99.90
20081;DHT22;10200;49.232;9.222;2023-02-01T11:34:57;7.30;99.90
20081;DHT22;10200;49.232;9.222;2023-02-01T11:37:31;7.30;99.90
20081;DHT22;10200;49.232;9.222;2023-02-01T11:39:59;7.30;99.90
20081;DHT22;10200;49.232;9.222;2023-02-01T11:42:27;7.30;99.90
20081;DHT22;10200;49.232;9.222;2023-02-01T11:45:16;7.30;99.90
20081;DHT22;10200;49.232;9.222;2023-02-01T11:47:42;7.30;99.90
20081;DHT22;10200;49.232;9.222;2023-02-01T11:50:22;7.40;99.90
20081;DHT22;10200;49.232;9.222;2023-02-01T12:07:31;7.70;99.90
20081;DHT22;10200;49.232;9.222;2023-02-01T12:13:41;7.60;99.90
20081;DHT22;10200;49.232;9.222;2023-02-01T12:21:36;7.60;99.90
20081;DHT22;10200;49.232;9.222;2023-02-01T12:32:34;7.70;99.90
20081;DHT22;10200;49.232;9.222;2023-02-01T12:43:12;7.50;99.90
20081;DHT22;10200;49.232;9.222;2023-02-01T12:46:09;7.50;99.90
20081;DHT22;10200;49.232;9.222;2023-02-01T12:51:09;7.50;99.90
20081;DHT22;10200;49.232;9.222;2023-02-01T12:53:41;7.50;99.90
20081;DHT22;10200;49.232;9.222;2023-02-01T12:56:11;7.50;99.90
20081;DHT22;10200;49.232;9.222;2023-02-01T12:58:48;7.60;99.90
20081;DHT22;10200;49.232;9.222;2023-02-01T13:01:26;7.60;99.90
20081;DHT22;10200;49.232;9.222;2023-02-01T13:09:24;7.80;99.90
20081;DHT22;10200;49.232;9.222;2023-02-01T13:11:54;7.80;99.90
20081;DHT22;10200;49.232;9.222;2023-02-01T13:17:23;7.80;99.90
20081;DHT22;10200;49.232;9.222;2023-02-01T13:22:48;7.80;99.90
20081;DHT22;10200;49.232;9.222;2023-02-01T13:28:05;7.80;99.90
20081;DHT22;10200;49.232;9.222;2023-02-01T13:34:16;7.80;99.90
20081;DHT22;10200;49.232;9.222;2023-02-01T13:42:28;7.90;99.90
20081;DHT22;10200;49.232;9.222;2023-02-01T13:45:13;7.80;99.90
20081;DHT22;10200;49.232;9.222;2023-02-01T13:47:42;7.80;99.90
20081;DHT22;10200;49.232;9.222;2023-02-01T13:50:21;7.70;99.90
20081;DHT22;10200;49.232;9.222;2023-02-01T13:52:58;7.70;99.90
20081;DHT22;10200;49.232;9.222;2023-02-01T13:55:33;7.60;99.90
20081;DHT22;10200;49.232;9.222;2023-02-01T13:58:15;7.60;99.90
20081;DHT22;10200;49.232;9.222;2023-02-01T14:00:42;7.60;99.90
20081;DHT22;10200;49.232;9.222;2023-02-01T14:03:17;7.60;99.90
20081;DHT22;10200;49.232;9.222;2023-02-01T14:08:12;7.70;99.90
20081;DHT22;10200;49.232;9.222;2023-02-01T14:10:56;7.80;99.90
20081;DHT22;10200;49.232;9.222;2023-02-01T14:13:36;7.80;99.90
20081;DHT22;10200;49.232;9.222;2023-02-01T14:24:13;7.70;99.90
20081;DHT22;10200;49.232;9.222;2023-02-01T14:26:43;7.60;99.90
20081;DHT22;10200;49.232;9.222;2023-02-01T14:34:26;7.70;99.90
20081;DHT22;10200;49.232;9.222;2023-02-01T14:37:01;7.70;99.90
20081;DHT22;10200;49.232;9.222;2023-02-01T14:42:28;7.60;99.90
20081;DHT22;10200;49.232;9.222;2023-02-01T14:45:46;7.60;99.90
20081;DHT22;10200;49.232;9.222;2023-02-01T14:47:42;7.60;99.90
20081;DHT22;10200;49.232;9.222;2023-02-01T14:55:56;7.60;99.90
20081;DHT22;10200;49.232;9.222;2023-02-01T14:58:57;7.60;99.40
20081;DHT22;10200;49.232;9.222;2023-02-01T15:01:27;7.50;99.70
20081;DHT22;10200;49.232;9.222;2023-02-01T15:04:04;7.60;99.70
20081;DHT22;10200;49.232;9.222;2023-02-01T15:06:42;7.60;99.70
20081;DHT22;10200;49.232;9.222;2023-02-01T15:09:18;7.50;99.50
20081;DHT22;10200;49.232;9.222;2023-02-01T15:14:27;7.50;99.90
20081;DHT22;10200;49.232;9.222;2023-02-01T15:16:53;7.50;99.90
20081;DHT22;10200;49.232;9.222;2023-02-01T15:19:24;7.50;99.90
20081;DHT22;10200;49.232;9.222;2023-02-01T15:21:52;7.50;99.90
20081;DHT22;10200;49.232;9.222;2023-02-01T15:24:26;7.40;99.90
20081;DHT22;10200;49.232;9.222;2023-02-01T15:26:54;7.40;99.90
20081;DHT22;10200;49.232;9.222;2023-02-01T15:29:21;7.40;99.90
20081;DHT22;10200;49.232;9.222;2023-02-01T15:31:52;7.40;99.90
20081;DHT22;10200;49.232;9.222;2023-02-01T15:34:18;7.40;99.90
20081;DHT22;10200;49.232;9.222;2023-02-01T15:36:45;7.30;99.90
20081;DHT22;10200;49.232;9.222;2023-02-01T15:39:13;7.30;99.90
20081;DHT22;10200;49.232;9.222;2023-02-01T15:41:48;7.30;99.90
20081;DHT22;10200;49.232;9.222;2023-02-01T15:44:19;7.30;99.90
20081;DHT22;10200;49.232;9.222;2023-02-01T15:46:47;7.30;99.90
20081;DHT22;10200;49.232;9.222;2023-02-01T15:49:24;7.30;99.90
20081;DHT22;10200;49.232;9.222;2023-02-01T15:51:51;7.30;99.90
20081;DHT22;10200;49.232;9.222;2023-02-01T15:54:46;7.30;99.90
20081;DHT22;10200;49.232;9.222;2023-02-01T15:57:09;7.30;99.90
20081;DHT22;10200;49.232;9.222;2023-02-01T15:59:42;7.20;99.90
20081;DHT22;10200;49.232;9.222;2023-02-01T16:02:36;7.20;99.90
20081;DHT22;10200;49.232;9.222;2023-02-01T16:05:05;7.20;99.90
20081;DHT22;10200;49.232;9.222;2023-02-01T16:07:32;7.20;99.90
20081;DHT22;10200;49.232;9.222;2023-02-01T16:10:00;7.20;99.90
20081;DHT22;10200;49.232;9.222;2023-02-01T16:15:04;7.20;99.90
20081;DHT22;10200;49.232;9.222;2023-02-01T16:17:31;7.10;99.90
20081;DHT22;10200;49.232;9.222;2023-02-01T16:19:56;7.10;99.90
20081;DHT22;10200;49.232;9.222;2023-02-01T16:22:23;7.00;99.90
20081;DHT22;10200;49.232;9.222;2023-02-01T16:24:49;7.00;99.90
20081;DHT22;10200;49.232;9.222;2023-02-01T16:27:15;7.00;99.90
20081;DHT22;10200;49.232;9.222;2023-02-01T16:29:40;7.00;99.90
20081;DHT22;10200;49.232;9.222;2023-02-01T16:32:08;7.10;99.90
20081;DHT22;10200;49.232;9.222;2023-02-01T16:34:35;7.00;99.90
20081;DHT22;10200;49.232;9.222;2023-02-01T16:37:03;7.10;99.90
20081;DHT22;10200;49.232;9.222;2023-02-01T16:39:28;7.00;99.90
20081;DHT22;10200;49.232;9.222;2023-02-01T16:41:56;7.00;99.90
20081;DHT22;10200;49.232;9.222;2023-02-01T16:44:21;7.00;99.90
20081;DHT22;10200;49.232;9.222;2023-02-01T16:46:48;7.00;99.90
20081;DHT22;10200;49.232;9.222;2023-02-01T16:49:20;7.10;99.90
20081;DHT22;10200;49.232;9.222;2023-02-01T16:51:46;7.00;99.90
20081;DHT22;10200;49.232;9.222;2023-02-01T16:54:12;7.00;99.90
20081;DHT22;10200;49.232;9.222;2023-02-01T16:56:38;7.10;99.90
20081;DHT22;10200;49.232;9.222;2023-02-01T16:59:06;7.10;99.90
20081;DHT22;10200;49.232;9.222;2023-02-01T17:01:33;7.10;99.90
20081;DHT22;10200;49.232;9.222;2023-02-01T17:03:59;7.10;99.90
20081;DHT22;10200;49.232;9.222;2023-02-01T17:06:25;7.10;99.90
20081;DHT22;10200;49.232;9.222;2023-02-01T17:08:54;7.10;99.90
20081;DHT22;10200;49.232;9.222;2023-02-01T17:11:21;7.10;99.90
20081;DHT22;10200;49.232;9.222;2023-02-01T17:13:47;7.20;99.90
20081;DHT22;10200;49.232;9.222;2023-02-01T17:18:53;7.10;99.90
20081;DHT22;10200;49.232;9.222;2023-02-01T17:21:20;7.10;99.90
20081;DHT22;10200;49.232;9.222;2023-02-01T17:23:45;7.10;99.90
20081;DHT22;10200;49.232;9.222;2023-02-01T17:26:11;7.10;99.90
20081;DHT22;10200;49.232;9.222;2023-02-01T17:28:37;7.10;99.90
20081;DHT22;10200;49.232;9.222;2023-02-01T17:31:03;7.10;99.90
20081;DHT22;10200;49.232;9.222;2023-02-01T17:33:34;7.10;99.90
20081;DHT22;10200;49.232;9.222;2023-02-01T17:36:01;7.10;99.90
20081;DHT22;10200;49.232;9.222;2023-02-01T17:38:27;7.10;99.90
20081;DHT22;10200;49.232;9.222;2023-02-01T17:40:53;7.10;99.90
20081;DHT22;10200;49.232;9.222;2023-02-01T17:43:24;7.10;99.90
20081;DHT22;10200;49.232;9.222;2023-02-01T17:45:59;7.10;99.90
20081;DHT22;10200;49.232;9.222;2023-02-01T17:48:25;7.10;99.90
20081;DHT22;10200;49.232;9.222;2023-02-01T17:50:51;7.10;99.90
20081;DHT22;10200;49.232;9.222;2023-02-01T17:53:23;7.10;99.90
20081;DHT22;10200;49.232;9.222;2023-02-01T17:55:49;7.10;99.90
20081;DHT22;10200;49.232;9.222;2023-02-01T17:58:16;7.10;99.90
20081;DHT22;10200;49.232;9.222;2023-02-01T18:00:42;7.00;99.90
20081;DHT22;10200;49.232;9.222;2023-02-01T18:03:24;7.10;99.90
20081;DHT22;10200;49.232;9.222;2023-02-01T18:05:52;7.00;99.90
20081;DHT22;10200;49.232;9.222;2023-02-01T18:08:21;7.00;99.90
20081;DHT22;10200;49.232;9.222;2023-02-01T18:10:56;7.00;99.90
20081;DHT22;10200;49.232;9.222;2023-02-01T18:13:28;7.00;99.90
20081;DHT22;10200;49.232;9.222;2023-02-01T18:15:54;7.00;99.90
20081;DHT22;10200;49.232;9.222;2023-02-01T18:18:20;7.10;99.90
20081;DHT22;10200;49.232;9.222;2023-02-01T18:20:47;7.00;99.90
20081;DHT22;10200;49.232;9.222;2023-02-01T18:23:21;7.00;99.90
20081;DHT22;10200;49.232;9.222;2023-02-01T18:25:48;7.00;99.90
20081;DHT22;10200;49.232;9.222;2023-02-01T18:28:16;7.00;99.90
20081;DHT22;10200;49.232;9.222;2023-02-01T18:30:43;7.10;99.90
20081;DHT22;10200;49.232;9.222;2023-02-01T18:33:14;7.00;99.90
20081;DHT22;10200;49.232;9.222;2023-02-01T18:35:40;7.00;99.90
20081;DHT22;10200;49.232;9.222;2023-02-01T18:38:06;6.90;99.90
20081;DHT22;10200;49.232;9.222;2023-02-01T18:40:35;6.90;99.90
20081;DHT22;10200;49.232;9.222;2023-02-01T18:43:01;6.90;99.90
20081;DHT22;10200;49.232;9.222;2023-02-01T18:47:57;6.80;99.90
20081;DHT22;10200;49.232;9.222;2023-02-01T18:50:23;6.80;99.90
20081;DHT22;10200;49.232;9.222;2023-02-01T18:52:52;6.80;99.90